Time;durP1;ratioP1;P1;durP2;ratioP2;P2;SDS_P1;SDS_P2;PMS_P1;PMS_P2;Temp;Humidity;BMP_temperature;BMP_pressure;BME280_temperature;BME280_humidity;BME280_pressure;Samples;Min_cycle;Max_cycle;Signal;HPM_P1;HPM_P2
2021/06/06 00:01:04;;;;;;;15.23;13.60;;;16.00;99.90;;;;;;5033231;28;20174;-76
2021/06/06 00:03:33;;;;;;;19.80;15.10;;;16.00;99.90;;;;;;5033055;28;20166;-76
2021/06/06 00:06:03;;;;;;;23.60;16.00;;;16.00;99.90;;;;;;5033123;28;20735;-78
2021/06/06 00:08:30;;;;;;;21.83;14.70;;;16.00;99.90;;;;;;5032745;28;20479;-76
2021/06/06 00:11:04;;;;;;;24.40;15.17;;;15.90;99.90;;;;;;5032825;28;20969;-76
2021/06/06 00:13:29;;;;;;;20.77;14.87;;;16.00;99.90;;;;;;5032849;28;20835;-78
2021/06/06 00:15:55;;;;;;;22.47;14.50;;;15.90;99.90;;;;;;5032864;28;20400;-76
2021/06/06 00:18:21;;;;;;;19.50;14.60;;;15.90;99.90;;;;;;5032886;28;20176;-75
2021/06/06 00:20:47;;;;;;;21.00;15.10;;;16.00;99.90;;;;;;5014999;28;20281;-76
2021/06/06 00:23:13;;;;;;;33.83;15.70;;;15.90;99.90;;;;;;5032716;28;20987;-76
2021/06/06 00:25:39;;;;;;;19.07;14.83;;;15.90;99.90;;;;;;5032544;28;20980;-76
2021/06/06 00:28:05;;;;;;;20.43;13.90;;;15.90;99.90;;;;;;5032679;28;20178;-76
2021/06/06 00:30:32;;;;;;;21.70;14.63;;;15.90;99.90;;;;;;5032439;28;21004;-76
2021/06/06 00:32:57;;;;;;;19.77;13.50;;;15.90;99.90;;;;;;5032537;28;20443;-76
2021/06/06 00:35:24;;;;;;;18.53;12.90;;;15.90;99.90;;;;;;5032392;28;20413;-77
2021/06/06 00:37:50;;;;;;;18.63;12.50;;;15.90;99.90;;;;;;5032624;28;20205;-75
2021/06/06 00:40:24;;;;;;;22.03;12.93;;;15.90;99.90;;;;;;5032661;28;20777;-77
2021/06/06 00:42:49;;;;;;;17.23;13.80;;;15.90;99.90;;;;;;5032372;28;20174;-76
2021/06/06 00:45:18;;;;;;;22.97;12.73;;;15.80;99.90;;;;;;5014682;28;20422;-78
2021/06/06 00:47:44;;;;;;;16.37;13.60;;;15.80;99.90;;;;;;5032409;28;20252;-77
2021/06/06 00:50:15;;;;;;;18.30;12.57;;;15.90;99.90;;;;;;5014328;28;20451;-78
2021/06/06 00:52:43;;;;;;;17.27;13.10;;;15.90;99.90;;;;;;5031281;28;20934;-76
2021/06/06 00:55:10;;;;;;;14.03;10.70;;;15.90;99.90;;;;;;5030836;28;20424;-76
2021/06/06 00:57:37;;;;;;;14.40;11.37;;;15.90;99.90;;;;;;5032546;28;20476;-75
2021/06/06 01:00:35;;;;;;;12.37;11.03;;;15.90;99.90;;;;;;5032059;28;20477;-76
2021/06/06 01:03:02;;;;;;;15.60;11.43;;;15.90;99.90;;;;;;5027938;28;20432;-76
2021/06/06 01:05:27;;;;;;;11.80;10.50;;;15.90;99.90;;;;;;5031946;28;20455;-75
2021/06/06 01:07:53;;;;;;;13.67;11.50;;;15.90;99.90;;;;;;5032018;28;20420;-75
2021/06/06 01:10:19;;;;;;;11.40;9.63;;;15.80;99.90;;;;;;5013764;28;20193;-77
2021/06/06 01:12:49;;;;;;;15.07;11.53;;;15.80;99.90;;;;;;5031733;28;20182;-76
2021/06/06 01:15:20;;;;;;;11.43;10.17;;;15.80;99.90;;;;;;5031817;28;20427;-77
2021/06/06 01:17:52;;;;;;;12.03;9.57;;;15.90;99.90;;;;;;5031936;28;20468;-75
2021/06/06 01:20:36;;;;;;;12.60;9.00;;;15.90;99.90;;;;;;5031952;28;20455;-76
2021/06/06 01:23:26;;;;;;;10.43;9.43;;;15.90;99.90;;;;;;5030706;28;20431;-76
2021/06/06 01:25:57;;;;;;;13.47;10.63;;;15.90;99.90;;;;;;5030656;28;20925;-76
2021/06/06 01:28:38;;;;;;;13.37;9.43;;;15.90;99.90;;;;;;5031848;28;20420;-76
2021/06/06 01:31:05;;;;;;;11.30;8.30;;;15.90;99.90;;;;;;5031678;28;20412;-75
2021/06/06 01:33:36;;;;;;;12.60;9.10;;;15.90;99.90;;;;;;5031607;28;20554;-76
2021/06/06 01:36:13;;;;;;;11.30;10.10;;;15.90;99.90;;;;;;5031348;28;20910;-75
2021/06/06 01:38:48;;;;;;;10.37;9.17;;;15.80;99.90;;;;;;5031599;28;20470;-75
2021/06/06 01:41:17;;;;;;;10.43;9.10;;;15.80;99.90;;;;;;5031527;28;20419;-75
2021/06/06 01:43:50;;;;;;;10.37;8.93;;;15.80;99.90;;;;;;5030573;28;20404;-76
2021/06/06 01:46:25;;;;;;;10.53;9.43;;;15.70;99.90;;;;;;5031657;28;20768;-75
2021/06/06 01:48:53;;;;;;;9.60;8.43;;;15.80;99.90;;;;;;5031426;28;20443;-76
2021/06/06 01:51:28;;;;;;;12.10;9.10;;;15.70;99.90;;;;;;5031359;28;20419;-76
2021/06/06 01:53:54;;;;;;;10.50;8.50;;;15.70;99.90;;;;;;5031111;28;20858;-75
2021/06/06 01:56:27;;;;;;;11.30;8.70;;;15.70;99.90;;;;;;5031445;28;20832;-77
2021/06/06 01:58:56;;;;;;;12.07;8.80;;;15.70;99.90;;;;;;5013664;28;20441;-76
2021/06/06 02:01:24;;;;;;;9.77;8.77;;;15.70;99.90;;;;;;5032519;28;20432;-76
2021/06/06 02:03:52;;;;;;;9.67;8.57;;;15.70;99.90;;;;;;5035316;28;20495;-76
2021/06/06 02:06:21;;;;;;;8.60;7.70;;;15.70;99.90;;;;;;5035585;28;20421;-76
2021/06/06 02:08:47;;;;;;;9.80;8.10;;;15.80;99.90;;;;;;5035238;28;20467;-79
2021/06/06 02:11:25;;;;;;;9.50;8.50;;;15.70;99.90;;;;;;5017807;28;20504;-76
2021/06/06 02:13:56;;;;;;;10.90;8.57;;;15.70;99.90;;;;;;5035209;28;20423;-76
2021/06/06 02:16:26;;;;;;;9.60;7.33;;;15.70;99.90;;;;;;5035301;28;20456;-76
2021/06/06 02:18:51;;;;;;;8.60;7.50;;;15.70;99.90;;;;;;5035050;28;20527;-76
2021/06/06 02:21:19;;;;;;;8.77;7.67;;;15.60;99.90;;;;;;5035248;28;20507;-78
2021/06/06 02:23:47;;;;;;;9.97;7.10;;;15.60;99.90;;;;;;5035056;28;20190;-76
2021/06/06 02:26:24;;;;;;;9.20;8.20;;;15.70;99.90;;;;;;5035128;28;20820;-76
2021/06/06 02:29:01;;;;;;;11.93;8.00;;;15.70;99.90;;;;;;5034968;28;20435;-76
2021/06/06 02:31:44;;;;;;;8.90;8.00;;;15.60;99.90;;;;;;5034883;28;20412;-75
2021/06/06 02:34:26;;;;;;;9.30;7.00;;;15.60;99.90;;;;;;5034799;28;20397;-75
2021/06/06 02:37:01;;;;;;;9.60;7.00;;;15.60;99.90;;;;;;5034632;28;20818;-76
2021/06/06 02:39:32;;;;;;;6.83;6.03;;;15.60;99.90;;;;;;5034605;28;20440;-76
2021/06/06 02:42:04;;;;;;;9.60;7.03;;;15.60;99.90;;;;;;5034637;28;20835;-76
2021/06/06 02:44:38;;;;;;;6.03;5.53;;;15.60;99.90;;;;;;5034639;28;20914;-75
2021/06/06 02:47:05;;;;;;;7.97;6.63;;;15.50;99.90;;;;;;5034379;28;20429;-76
2021/06/06 02:49:38;;;;;;;7.20;6.50;;;15.60;99.90;;;;;;5034572;28;20424;-75
2021/06/06 02:52:06;;;;;;;9.40;6.67;;;15.50;99.90;;;;;;5034475;28;20494;-76
2021/06/06 02:54:38;;;;;;;7.57;6.83;;;15.50;99.90;;;;;;5034269;28;20432;-75
2021/06/06 02:57:08;;;;;;;8.07;7.23;;;15.50;99.90;;;;;;5034209;28;20456;-76
2021/06/06 02:59:40;;;;;;;10.10;7.50;;;15.50;99.90;;;;;;5034565;28;20430;-76
2021/06/06 03:02:12;;;;;;;7.80;6.47;;;15.50;99.90;;;;;;5034315;28;20472;-76
2021/06/06 03:04:40;;;;;;;6.80;6.10;;;15.50;99.90;;;;;;5034344;28;20467;-76
2021/06/06 03:07:46;;;;;;;9.07;7.40;;;15.50;99.90;;;;;;5034216;28;20802;-76
2021/06/06 03:10:15;;;;;;;9.23;7.00;;;15.50;99.90;;;;;;5026131;28;20440;-78
2021/06/06 03:12:42;;;;;;;9.80;6.53;;;15.50;99.90;;;;;;5016092;28;20507;-75
2021/06/06 03:15:10;;;;;;;10.40;7.13;;;15.50;99.90;;;;;;5016449;28;20567;-76
2021/06/06 03:17:50;;;;;;;8.40;5.97;;;15.40;99.90;;;;;;5034196;28;20819;-76
2021/06/06 03:20:21;;;;;;;12.37;6.70;;;15.50;99.90;;;;;;5034039;28;20531;-76
2021/06/06 03:22:48;;;;;;;9.27;7.30;;;15.50;99.90;;;;;;5033790;28;20422;-76
2021/06/06 03:25:37;;;;;;;10.80;7.90;;;15.50;99.90;;;;;;5034081;28;20409;-75
2021/06/06 03:28:05;;;;;;;6.77;5.87;;;15.50;99.90;;;;;;5034047;28;20984;-76
2021/06/06 03:30:42;;;;;;;9.90;7.10;;;15.40;99.90;;;;;;5033856;28;20443;-76
2021/06/06 03:33:15;;;;;;;7.23;6.50;;;15.50;99.90;;;;;;5033764;28;20462;-76
2021/06/06 03:35:41;;;;;;;10.70;7.00;;;15.40;99.90;;;;;;5033739;28;20502;-76
2021/06/06 03:38:07;;;;;;;10.70;6.40;;;15.40;99.90;;;;;;5033742;28;20606;-75
2021/06/06 03:40:37;;;;;;;8.77;5.60;;;15.40;99.90;;;;;;5033683;28;20220;-76
2021/06/06 03:43:05;;;;;;;11.00;6.40;;;15.30;99.90;;;;;;5033591;28;20542;-76
2021/06/06 03:45:31;;;;;;;7.90;7.10;;;15.30;99.90;;;;;;5015924;28;20441;-76
2021/06/06 03:47:58;;;;;;;9.10;6.40;;;15.30;99.90;;;;;;5033493;28;20949;-78
2021/06/06 03:50:25;;;;;;;7.63;6.20;;;15.30;99.90;;;;;;5033402;28;20247;-75
2021/06/06 03:52:51;;;;;;;7.47;5.33;;;15.30;99.90;;;;;;5033335;28;20413;-76
2021/06/06 03:55:18;;;;;;;4.93;4.53;;;15.30;99.90;;;;;;5033223;28;20960;-76
2021/06/06 03:57:44;;;;;;;6.67;5.93;;;15.30;99.90;;;;;;5033480;28;20216;-76
2021/06/06 04:00:20;;;;;;;8.20;5.47;;;15.30;99.90;;;;;;5033527;28;20761;-75
2021/06/06 04:02:45;;;;;;;5.70;5.10;;;15.30;99.90;;;;;;5033278;28;20422;-76
2021/06/06 04:05:12;;;;;;;7.90;5.40;;;15.30;99.90;;;;;;5033229;28;20405;-76
2021/06/06 04:07:38;;;;;;;7.90;4.23;;;15.30;99.90;;;;;;5033350;28;20192;-78
2021/06/06 04:10:05;;;;;;;6.83;4.83;;;15.20;99.90;;;;;;5033158;28;20455;-76
2021/06/06 04:12:31;;;;;;;4.60;4.20;;;15.20;99.90;;;;;;5033252;28;20182;-75
2021/06/06 04:14:56;;;;;;;4.93;4.50;;;15.20;99.90;;;;;;5033086;28;20408;-76
2021/06/06 04:17:23;;;;;;;6.63;5.07;;;15.20;99.90;;;;;;5033323;28;20205;-76
2021/06/06 04:19:48;;;;;;;5.77;4.10;;;15.20;99.90;;;;;;5032893;28;20186;-78
2021/06/06 04:22:14;;;;;;;4.90;4.50;;;15.30;99.90;;;;;;5033019;28;21135;-76
2021/06/06 04:24:40;;;;;;;9.23;4.33;;;15.30;99.90;;;;;;5014511;28;20181;-75
2021/06/06 04:27:06;;;;;;;5.60;4.63;;;15.30;99.90;;;;;;5032777;28;20174;-76
2021/06/06 04:29:32;;;;;;;6.60;4.27;;;15.30;99.90;;;;;;5032931;28;20436;-75
2021/06/06 04:31:58;;;;;;;5.40;4.10;;;15.30;99.90;;;;;;5032719;28;20409;-76
2021/06/06 04:34:23;;;;;;;9.60;4.70;;;15.30;99.90;;;;;;5032788;28;20178;-77
2021/06/06 04:36:50;;;;;;;3.90;3.60;;;15.30;99.90;;;;;;5032503;28;20279;-76
2021/06/06 04:39:16;;;;;;;6.07;4.67;;;15.30;99.90;;;;;;5032498;28;20680;-75
2021/06/06 04:41:42;;;;;;;5.90;4.00;;;15.30;99.90;;;;;;5032419;28;20405;-76
2021/06/06 04:44:08;;;;;;;4.70;3.83;;;15.30;99.90;;;;;;5032252;28;20405;-79
2021/06/06 04:46:33;;;;;;;3.90;3.60;;;15.30;99.90;;;;;;5032522;28;20470;-75
2021/06/06 04:48:59;;;;;;;8.27;4.43;;;15.30;99.90;;;;;;5032347;28;20892;-76
2021/06/06 04:51:25;;;;;;;7.03;4.67;;;15.30;99.90;;;;;;5014845;28;20185;-76
2021/06/06 04:53:52;;;;;;;9.83;4.33;;;15.40;99.90;;;;;;5032071;28;20197;-75
2021/06/06 04:56:21;;;;;;;4.63;4.23;;;15.30;99.90;;;;;;5031826;28;20475;-76
2021/06/06 04:58:47;;;;;;;5.80;4.23;;;15.20;99.90;;;;;;5014349;28;20475;-77
2021/06/06 05:01:14;;;;;;;7.10;4.23;;;15.30;99.90;;;;;;5032102;28;20409;-77
2021/06/06 05:03:40;;;;;;;8.33;4.50;;;15.30;99.90;;;;;;5031981;28;20182;-76
2021/06/06 05:06:05;;;;;;;5.03;4.00;;;15.30;99.90;;;;;;5031661;28;20401;-78
2021/06/06 05:08:31;;;;;;;8.03;5.90;;;15.30;99.90;;;;;;5032170;28;20825;-75
2021/06/06 05:10:57;;;;;;;7.37;4.70;;;15.30;99.90;;;;;;5013989;28;20181;-76
2021/06/06 05:13:24;;;;;;;9.83;4.70;;;15.30;99.90;;;;;;5014180;28;20789;-75
2021/06/06 05:15:51;;;;;;;5.80;4.27;;;15.30;99.90;;;;;;5014215;28;20323;-78
2021/06/06 05:18:17;;;;;;;5.77;4.13;;;15.40;99.90;;;;;;5014090;28;20499;-76
2021/06/06 05:20:46;;;;;;;9.17;4.73;;;15.30;99.90;;;;;;5031993;28;20498;-75
2021/06/06 05:23:12;;;;;;;4.90;4.40;;;15.40;99.90;;;;;;5013769;28;20424;-78
2021/06/06 05:25:40;;;;;;;7.47;3.97;;;15.30;99.90;;;;;;5031694;28;20417;-75
2021/06/06 05:28:08;;;;;;;7.13;5.40;;;15.30;99.90;;;;;;5031899;28;20429;-77
2021/06/06 05:30:36;;;;;;;8.63;4.70;;;15.30;99.90;;;;;;5031294;28;20448;-75
2021/06/06 05:33:03;;;;;;;7.30;4.80;;;15.20;99.90;;;;;;5013815;28;20926;-76
2021/06/06 05:35:31;;;;;;;6.33;4.93;;;15.20;99.90;;;;;;5030671;28;20443;-78
2021/06/06 05:37:57;;;;;;;9.03;5.30;;;15.20;99.90;;;;;;5031279;28;21000;-75
2021/06/06 05:40:24;;;;;;;8.83;4.70;;;15.20;99.90;;;;;;5031268;28;20433;-75
2021/06/06 05:42:50;;;;;;;9.13;5.67;;;15.30;99.90;;;;;;5031376;28;20854;-76
2021/06/06 05:45:17;;;;;;;12.30;6.63;;;15.30;99.90;;;;;;5031458;28;20456;-76
2021/06/06 05:47:43;;;;;;;11.20;6.30;;;15.30;99.90;;;;;;5031336;28;20675;-75
2021/06/06 05:50:10;;;;;;;10.50;7.80;;;15.40;99.90;;;;;;5031213;28;20531;-75
2021/06/06 05:52:36;;;;;;;10.00;7.30;;;15.40;99.90;;;;;;5031313;28;20178;-76
2021/06/06 05:55:04;;;;;;;9.80;7.27;;;15.30;99.90;;;;;;5031164;28;20451;-78
2021/06/06 05:57:30;;;;;;;11.13;7.53;;;15.30;99.90;;;;;;5013842;28;20210;-76
2021/06/06 05:59:55;;;;;;;19.27;8.93;;;15.30;99.90;;;;;;5031285;28;20770;-76
2021/06/06 06:02:21;;;;;;;10.60;8.23;;;15.30;99.90;;;;;;5031173;28;20174;-76
2021/06/06 06:04:47;;;;;;;12.70;8.67;;;15.30;99.90;;;;;;5031148;28;20555;-75
2021/06/06 06:07:12;;;;;;;12.20;8.80;;;15.40;99.90;;;;;;5031271;28;20181;-75
2021/06/06 06:09:38;;;;;;;11.43;8.30;;;15.40;99.90;;;;;;5031294;28;20201;-74
2021/06/06 06:12:04;;;;;;;14.50;9.70;;;15.30;99.90;;;;;;5013733;28;20189;-78
2021/06/06 06:14:30;;;;;;;10.87;8.20;;;15.40;99.90;;;;;;5031059;28;20719;-75
2021/06/06 06:16:55;;;;;;;12.10;8.40;;;15.40;99.90;;;;;;5031173;28;20555;-76
2021/06/06 06:19:21;;;;;;;15.60;8.93;;;15.30;99.90;;;;;;5031129;28;20233;-75
2021/06/06 06:21:46;;;;;;;9.40;7.60;;;15.40;99.90;;;;;;5013487;28;20175;-75
2021/06/06 06:24:12;;;;;;;15.30;9.53;;;15.40;99.90;;;;;;5031049;28;20173;-77
2021/06/06 06:26:39;;;;;;;11.83;8.17;;;15.40;99.90;;;;;;5031103;28;20178;-75
2021/06/06 06:29:06;;;;;;;13.60;8.10;;;15.40;99.90;;;;;;5031112;28;20441;-77
2021/06/06 06:31:33;;;;;;;11.30;8.07;;;15.40;99.90;;;;;;5013132;28;20925;-76
2021/06/06 06:34:00;;;;;;;11.60;8.20;;;15.40;99.90;;;;;;5013289;28;20491;-75
2021/06/06 06:36:26;;;;;;;12.70;9.10;;;15.40;99.90;;;;;;5032435;28;20500;-76
2021/06/06 06:38:52;;;;;;;12.70;8.67;;;15.40;99.90;;;;;;5031639;28;20519;-76
2021/06/06 06:41:20;;;;;;;10.30;8.43;;;15.40;99.90;;;;;;5031506;28;20467;-76
2021/06/06 06:43:45;;;;;;;14.63;9.80;;;15.50;99.90;;;;;;5031275;28;20420;-76
2021/06/06 06:46:11;;;;;;;10.17;8.03;;;15.50;99.90;;;;;;5030898;28;20411;-76
2021/06/06 06:48:37;;;;;;;11.37;9.23;;;15.60;99.90;;;;;;5034104;28;20174;-75
2021/06/06 06:51:03;;;;;;;12.37;9.03;;;15.60;99.90;;;;;;5034727;28;20416;-74
2021/06/06 06:53:28;;;;;;;8.40;7.47;;;15.60;99.90;;;;;;5034190;28;20209;-75
2021/06/06 06:55:54;;;;;;;8.23;7.37;;;15.60;99.90;;;;;;5034650;28;20260;-76
2021/06/06 06:58:20;;;;;;;8.67;7.17;;;15.60;99.90;;;;;;5034203;28;20716;-75
2021/06/06 07:00:49;;;;;;;10.20;8.27;;;15.50;99.90;;;;;;5034545;28;20174;-75
2021/06/06 07:03:21;;;;;;;10.50;8.10;;;15.60;99.90;;;;;;5016640;28;20186;-75
2021/06/06 07:05:47;;;;;;;11.50;7.97;;;15.60;99.90;;;;;;5034946;28;20467;-78
2021/06/06 07:08:15;;;;;;;15.83;8.50;;;15.70;99.90;;;;;;5034907;28;20421;-76
2021/06/06 07:10:43;;;;;;;10.03;7.93;;;15.70;99.90;;;;;;5016856;28;20209;-75
2021/06/06 07:13:09;;;;;;;9.40;7.37;;;15.70;99.90;;;;;;5034231;28;20424;-75
2021/06/06 07:15:35;;;;;;;8.83;7.37;;;15.70;99.90;;;;;;5034497;28;20824;-75
2021/06/06 07:18:02;;;;;;;7.73;7.00;;;15.70;99.90;;;;;;5033365;28;20472;-75
2021/06/06 07:20:32;;;;;;;8.53;7.57;;;15.80;99.90;;;;;;5034045;28;20961;-75
2021/06/06 07:22:58;;;;;;;8.20;7.40;;;15.80;99.90;;;;;;5034189;28;20970;-76
2021/06/06 07:25:25;;;;;;;8.90;6.83;;;15.80;99.90;;;;;;5033896;28;20420;-76
2021/06/06 07:27:52;;;;;;;12.43;7.20;;;15.80;99.90;;;;;;5016438;28;20470;-76
2021/06/06 07:30:24;;;;;;;7.40;6.57;;;15.80;99.90;;;;;;5033916;28;20432;-77
2021/06/06 07:32:50;;;;;;;10.63;7.43;;;15.80;99.90;;;;;;5033927;28;20920;-75
2021/06/06 07:35:17;;;;;;;11.03;7.63;;;15.80;99.90;;;;;;5033896;28;20433;-76
2021/06/06 07:37:43;;;;;;;15.90;8.73;;;15.80;99.90;;;;;;5034337;28;20476;-76
2021/06/06 07:40:12;;;;;;;9.60;7.00;;;15.80;99.90;;;;;;5033726;28;20428;-77
2021/06/06 07:42:37;;;;;;;8.70;7.30;;;15.90;99.90;;;;;;5033768;28;20209;-76
2021/06/06 07:45:07;;;;;;;9.13;8.20;;;15.90;99.90;;;;;;5033801;28;20445;-76
2021/06/06 07:47:33;;;;;;;12.93;8.47;;;15.90;99.90;;;;;;5033693;28;20181;-78
2021/06/06 07:49:59;;;;;;;9.50;8.60;;;16.00;99.90;;;;;;5033516;28;20520;-75
2021/06/06 07:52:24;;;;;;;10.50;8.77;;;15.90;99.90;;;;;;5033322;28;20571;-75
2021/06/06 07:54:50;;;;;;;14.00;9.43;;;15.90;99.90;;;;;;5033669;28;20621;-76
2021/06/06 07:57:17;;;;;;;11.70;9.50;;;15.90;99.90;;;;;;5033380;28;20541;-76
2021/06/06 07:59:42;;;;;;;12.70;9.57;;;15.90;99.90;;;;;;5032490;28;20186;-76
2021/06/06 08:02:08;;;;;;;12.93;8.10;;;15.90;99.90;;;;;;5033381;28;20407;-76
2021/06/06 08:04:36;;;;;;;15.17;9.10;;;16.00;99.90;;;;;;5033028;28;20232;-76
2021/06/06 08:07:01;;;;;;;12.23;9.60;;;16.00;99.90;;;;;;5033292;28;20177;-76
2021/06/06 08:09:27;;;;;;;15.47;9.47;;;16.10;99.90;;;;;;5032930;28;20432;-76
2021/06/06 08:11:53;;;;;;;16.63;9.37;;;16.00;99.90;;;;;;5033231;28;20418;-78
2021/06/06 08:14:18;;;;;;;12.83;8.30;;;16.00;99.90;;;;;;5032719;28;20185;-75
2021/06/06 08:16:44;;;;;;;14.10;10.00;;;16.00;99.90;;;;;;5033075;28;20213;-76
2021/06/06 08:19:09;;;;;;;12.37;9.90;;;15.90;99.90;;;;;;5032954;28;20200;-77
2021/06/06 08:21:40;;;;;;;17.37;9.60;;;15.90;99.90;;;;;;5032995;28;20206;-76
2021/06/06 08:24:08;;;;;;;12.03;10.07;;;15.90;99.90;;;;;;5032812;28;20173;-76
2021/06/06 08:26:34;;;;;;;13.63;9.77;;;15.90;99.90;;;;;;5032796;28;20416;-76
2021/06/06 08:29:01;;;;;;;12.20;9.50;;;15.90;99.90;;;;;;5032818;28;20442;-77
2021/06/06 08:31:30;;;;;;;11.90;9.00;;;15.90;99.90;;;;;;5014761;28;20425;-76
2021/06/06 08:33:57;;;;;;;18.70;10.33;;;16.00;99.90;;;;;;5032629;28;20420;-76
2021/06/06 08:36:44;;;;;;;22.00;10.57;;;15.90;99.90;;;;;;5032445;28;20412;-76
2021/06/06 08:39:18;;;;;;;17.80;10.23;;;15.90;99.90;;;;;;5032714;28;20800;-76
2021/06/06 08:41:50;;;;;;;21.20;11.60;;;15.90;99.90;;;;;;5014999;28;20424;-76
2021/06/06 08:44:24;;;;;;;17.97;10.93;;;15.90;99.90;;;;;;5014808;28;20437;-76
2021/06/06 08:47:27;;;;;;;15.97;11.60;;;15.90;99.90;;;;;;5032588;28;20503;-76
2021/06/06 08:49:57;;;;;;;15.57;11.47;;;15.90;99.90;;;;;;5028373;28;20490;-77
2021/06/06 08:52:54;;;;;;;14.83;11.80;;;15.90;99.90;;;;;;5032516;28;20413;-79
2021/06/06 08:55:55;;;;;;;15.80;11.13;;;15.90;99.90;;;;;;5032163;28;20916;-76
2021/06/06 08:59:05;;;;;;;17.57;11.33;;;16.00;99.90;;;;;;5032261;28;20834;-74
2021/06/06 09:01:56;;;;;;;19.10;11.77;;;16.00;99.90;;;;;;4951929;29;20515;-76
2021/06/06 09:04:28;;;;;;;19.87;11.13;;;16.10;99.90;;;;;;5032103;28;20459;-76
2021/06/06 09:07:13;;;;;;;20.00;12.83;;;16.10;99.90;;;;;;5032039;28;20421;-76
2021/06/06 09:09:50;;;;;;;18.80;12.30;;;16.10;99.90;;;;;;5032149;28;20442;-76
2021/06/06 09:12:22;;;;;;;19.33;13.80;;;16.20;99.90;;;;;;5032197;28;20933;-77
2021/06/06 09:14:50;;;;;;;19.33;13.30;;;16.10;99.90;;;;;;5032409;28;20420;-75
2021/06/06 09:17:32;;;;;;;22.03;14.50;;;16.20;99.90;;;;;;5032140;28;20488;-76
2021/06/06 09:19:59;;;;;;;16.17;13.77;;;16.10;99.90;;;;;;5032153;28;20922;-76
2021/06/06 09:22:44;;;;;;;22.20;13.20;;;16.20;99.90;;;;;;5014221;28;20494;-75
2021/06/06 09:25:11;;;;;;;22.27;13.13;;;16.10;99.90;;;;;;5031890;28;20499;-76
2021/06/06 09:27:37;;;;;;;26.17;14.57;;;16.20;99.90;;;;;;5032012;28;20409;-76
2021/06/06 09:30:02;;;;;;;15.73;12.00;;;16.30;99.90;;;;;;5031930;28;20799;-76
2021/06/06 09:32:28;;;;;;;22.50;12.63;;;16.30;99.90;;;;;;5014154;28;20431;-76
2021/06/06 09:35:09;;;;;;;15.90;12.37;;;16.40;99.90;;;;;;5031653;28;20268;-76
2021/06/06 09:37:42;;;;;;;15.07;11.70;;;16.30;99.90;;;;;;5031693;28;20213;-75
2021/06/06 09:40:13;;;;;;;19.07;11.57;;;16.40;99.90;;;;;;5030504;28;20493;-78
2021/06/06 09:42:47;;;;;;;18.57;13.30;;;16.40;99.90;;;;;;5031794;28;20827;-76
2021/06/06 09:45:29;;;;;;;21.37;14.80;;;16.40;99.90;;;;;;5031020;28;20412;-76
2021/06/06 09:48:01;;;;;;;23.00;17.37;;;16.40;99.90;;;;;;5031705;28;20411;-76
2021/06/06 09:50:45;;;;;;;25.57;17.23;;;16.40;99.90;;;;;;5013568;28;20445;-76
2021/06/06 09:53:23;;;;;;;28.27;20.93;;;16.50;99.90;;;;;;5013975;28;20420;-75
2021/06/06 09:55:50;;;;;;;29.60;20.27;;;16.50;99.90;;;;;;5031398;28;20490;-76
2021/06/06 09:58:30;;;;;;;34.27;21.47;;;16.50;99.90;;;;;;5031420;28;20460;-76
2021/06/06 10:01:09;;;;;;;40.47;23.83;;;16.50;99.90;;;;;;5031279;28;20408;-76
2021/06/06 10:03:48;;;;;;;37.20;24.20;;;16.60;99.90;;;;;;5031077;28;20411;-75
2021/06/06 10:06:17;;;;;;;41.33;26.97;;;16.50;99.90;;;;;;5013637;28;20424;-76
2021/06/06 10:08:44;;;;;;;35.57;26.03;;;16.40;99.90;;;;;;5031177;28;20815;-76
2021/06/06 10:11:16;;;;;;;42.23;26.23;;;16.40;99.90;;;;;;5031157;28;20401;-79
2021/06/06 10:13:52;;;;;;;40.17;26.10;;;16.50;99.90;;;;;;5030875;28;20424;-77
2021/06/06 10:16:24;;;;;;;41.67;26.90;;;16.60;99.90;;;;;;5030895;28;20503;-76
2021/06/06 10:19:00;;;;;;;38.30;25.40;;;16.40;99.90;;;;;;5031269;28;20459;-77
2021/06/06 10:21:32;;;;;;;36.27;24.87;;;16.50;99.90;;;;;;5014050;28;20409;-77
2021/06/06 10:24:18;;;;;;;41.50;27.47;;;16.50;99.90;;;;;;5034988;28;20413;-76
2021/06/06 10:26:51;;;;;;;43.40;27.83;;;16.60;99.90;;;;;;5017175;28;20803;-76
2021/06/06 10:29:33;;;;;;;38.67;25.70;;;16.60;99.90;;;;;;5035210;28;20433;-76
2021/06/06 10:32:07;;;;;;;42.33;26.70;;;16.60;99.90;;;;;;5034932;28;20408;-77
2021/06/06 10:35:05;;;;;;;44.20;29.47;;;16.60;99.90;;;;;;5034640;28;20430;-77
2021/06/06 10:37:31;;;;;;;43.30;28.73;;;16.70;99.90;;;;;;5017311;28;20479;-77
2021/06/06 10:40:13;;;;;;;54.57;32.40;;;16.60;99.90;;;;;;5034930;28;20970;-75
2021/06/06 10:42:49;;;;;;;52.10;32.57;;;16.60;99.90;;;;;;5034503;28;20482;-76
2021/06/06 10:45:22;;;;;;;50.77;32.57;;;16.50;99.90;;;;;;5034940;28;20408;-76
2021/06/06 10:47:52;;;;;;;55.37;31.80;;;16.60;99.90;;;;;;5034711;28;21132;-75
2021/06/06 10:50:40;;;;;;;58.23;33.67;;;16.70;99.90;;;;;;5034646;28;20484;-76
2021/06/06 10:53:13;;;;;;;56.67;33.63;;;16.60;99.90;;;;;;5034565;28;20416;-76
2021/06/06 10:56:03;;;;;;;53.20;33.77;;;16.70;99.90;;;;;;5034402;28;20477;-76
2021/06/06 10:58:32;;;;;;;59.07;35.40;;;16.70;99.90;;;;;;5016550;28;20460;-77
2021/06/06 11:01:03;;;;;;;56.30;35.43;;;16.70;99.90;;;;;;5034588;28;20408;-76
2021/06/06 11:03:34;;;;;;;60.37;36.53;;;16.70;99.90;;;;;;5034376;28;20409;-76
2021/06/06 11:06:02;;;;;;;65.13;36.37;;;16.70;99.90;;;;;;5034479;28;20416;-76
2021/06/06 11:08:28;;;;;;;67.10;37.73;;;16.70;99.90;;;;;;5034454;28;20417;-76
2021/06/06 11:11:08;;;;;;;63.40;36.93;;;16.70;99.90;;;;;;5034274;28;20472;-76
2021/06/06 11:13:46;;;;;;;64.93;36.77;;;16.70;99.90;;;;;;5034284;28;20263;-76
2021/06/06 11:16:17;;;;;;;69.73;40.50;;;16.60;99.90;;;;;;5033732;28;20468;-78
2021/06/06 11:18:49;;;;;;;71.90;39.80;;;16.60;99.90;;;;;;5034112;28;20441;-76
2021/06/06 11:21:14;;;;;;;75.90;40.50;;;16.60;99.90;;;;;;5034151;28;20782;-77
2021/06/06 11:23:46;;;;;;;84.67;45.93;;;16.60;99.90;;;;;;5033948;28;20412;-79
2021/06/06 11:26:42;;;;;;;83.03;44.17;;;16.50;99.90;;;;;;5034261;28;20663;-76
2021/06/06 11:29:19;;;;;;;86.60;44.87;;;16.40;99.90;;;;;;5027918;28;20432;-76
2021/06/06 11:32:14;;;;;;;74.90;43.10;;;16.40;99.90;;;;;;5016348;28;20516;-76
2021/06/06 11:34:42;;;;;;;87.33;46.80;;;16.50;99.90;;;;;;5034095;28;20404;-76
2021/06/06 11:37:28;;;;;;;93.80;43.73;;;16.50;99.90;;;;;;5033952;28;21043;-76
2021/06/06 11:39:56;;;;;;;78.87;44.37;;;16.40;99.90;;;;;;5033879;28;20420;-76
2021/06/06 11:42:22;;;;;;;77.80;45.97;;;16.50;99.90;;;;;;5034030;28;20444;-77
2021/06/06 11:44:52;;;;;;;80.80;44.90;;;16.60;99.90;;;;;;5033573;28;20937;-79
2021/06/06 11:47:29;;;;;;;92.33;44.97;;;16.60;99.90;;;;;;5033860;28;20174;-77
2021/06/06 11:50:15;;;;;;;73.70;44.90;;;16.70;99.90;;;;;;5033884;28;20433;-75
2021/06/06 11:52:47;;;;;;;81.27;42.20;;;16.80;99.90;;;;;;5015540;28;20432;-80
2021/06/06 11:55:15;;;;;;;64.67;40.30;;;17.00;99.90;;;;;;5032989;28;20440;-75
2021/06/06 11:57:49;;;;;;;71.43;42.27;;;17.00;99.90;;;;;;5033245;28;20453;-76
2021/06/06 12:00:19;;;;;;;69.10;39.93;;;16.90;99.90;;;;;;5033797;28;20860;-76
2021/06/06 12:02:44;;;;;;;74.73;41.47;;;16.90;99.90;;;;;;5033185;28;20455;-75
2021/06/06 12:05:27;;;;;;;70.50;38.53;;;16.80;99.90;;;;;;5033540;28;20417;-76
2021/06/06 12:07:53;;;;;;;67.07;39.53;;;16.80;99.90;;;;;;5033665;28;20269;-77
2021/06/06 12:10:33;;;;;;;66.67;35.90;;;16.70;99.90;;;;;;5033172;28;20459;-78
2021/06/06 12:13:02;;;;;;;66.97;35.97;;;16.70;99.90;;;;;;5033674;28;20212;-76
2021/06/06 12:15:38;;;;;;;55.37;35.40;;;16.70;99.90;;;;;;5033719;28;20452;-76
2021/06/06 12:18:21;;;;;;;62.63;36.20;;;16.70;99.90;;;;;;5033395;28;20464;-77
2021/06/06 12:21:09;;;;;;;54.30;33.47;;;16.70;99.90;;;;;;5015309;28;20413;-76
2021/06/06 12:23:59;;;;;;;54.20;34.87;;;16.80;99.90;;;;;;5032744;28;20423;-76
2021/06/06 12:26:29;;;;;;;54.90;34.00;;;16.90;99.90;;;;;;5021720;28;20464;-75
2021/06/06 12:28:57;;;;;;;49.93;34.40;;;16.90;99.90;;;;;;5032804;28;20440;-76
2021/06/06 12:31:36;;;;;;;63.90;35.00;;;16.90;99.90;;;;;;5032638;28;20409;-77
2021/06/06 12:34:21;;;;;;;58.07;36.33;;;17.00;99.90;;;;;;5032842;28;20412;-76
2021/06/06 12:36:49;;;;;;;56.27;34.77;;;17.00;99.90;;;;;;5032653;28;20449;-76
2021/06/06 12:39:18;;;;;;;50.50;32.73;;;17.00;99.90;;;;;;5032768;28;20898;-76
2021/06/06 12:41:46;;;;;;;52.07;33.23;;;17.10;99.90;;;;;;5032526;28;20417;-76
2021/06/06 12:44:15;;;;;;;57.17;34.07;;;17.20;99.90;;;;;;5032507;28;20409;-77
2021/06/06 12:46:52;;;;;;;63.70;34.97;;;17.10;99.90;;;;;;5032135;28;20416;-79
2021/06/06 12:49:40;;;;;;;50.87;33.57;;;17.10;99.90;;;;;;5032485;28;20420;-77
2021/06/06 12:52:23;;;;;;;59.00;34.00;;;17.20;99.90;;;;;;5032363;28;20479;-75
2021/06/06 12:54:49;;;;;;;55.23;34.77;;;17.20;99.90;;;;;;5032264;28;20844;-76